createdAt,value
2019-06-20T00:01:44.242Z,98.76
2019-06-20T00:04:32.564Z,98.04
2019-06-20T00:07:20.040Z,98.34
2019-06-20T00:10:07.770Z,98.86
2019-06-20T00:13:00.549Z,99.49
2019-06-20T00:15:43.438Z,99.67
2019-06-20T00:18:31.118Z,98.55
2019-06-20T00:21:19.226Z,99.21
2019-06-20T00:24:07.178Z,100.00
2019-06-20T00:26:55.310Z,100.00
2019-06-20T00:29:42.896Z,100.00
2019-06-20T00:32:31.167Z,100.00
2019-06-20T00:35:19.122Z,100.00
2019-06-20T00:38:06.892Z,100.00
2019-06-20T00:40:55.040Z,100.00
2019-06-20T00:43:42.850Z,100.00
2019-06-20T00:46:30.515Z,100.00
2019-06-20T00:49:18.367Z,100.00
2019-06-20T00:52:06.358Z,100.00
2019-06-20T00:54:54.589Z,100.00
2019-06-20T00:57:42.523Z,100.00
2019-06-20T01:00:30.284Z,100.00
2019-06-20T01:03:17.888Z,100.00
2019-06-20T01:06:05.548Z,100.00
2019-06-20T01:08:53.957Z,100.00
2019-06-20T01:11:41.695Z,100.00
2019-06-20T01:14:29.937Z,100.00
2019-06-20T01:17:18.211Z,100.00
2019-06-20T01:20:06.230Z,100.00
2019-06-20T01:22:54.074Z,100.00
2019-06-20T01:25:42.265Z,100.00
2019-06-20T01:28:30.091Z,100.00
2019-06-20T01:31:17.980Z,100.00
2019-06-20T01:34:05.683Z,100.00
2019-06-20T01:36:53.195Z,100.00
2019-06-20T01:39:41.446Z,100.00
2019-06-20T01:42:29.523Z,100.00
2019-06-20T01:45:18.045Z,100.00
2019-06-20T01:48:06.158Z,100.00
2019-06-20T01:50:53.661Z,100.00
2019-06-20T01:53:41.889Z,100.00
2019-06-20T01:56:29.858Z,100.00
2019-06-20T01:59:18.118Z,100.00
2019-06-20T02:02:06.124Z,100.00
2019-06-20T02:04:54.045Z,100.00
2019-06-20T02:07:41.729Z,100.00
2019-06-20T02:10:29.231Z,100.00
2019-06-20T02:13:17.476Z,100.00
2019-06-20T02:16:05.093Z,100.00
2019-06-20T02:18:52.820Z,100.00
2019-06-20T02:21:40.265Z,100.00
2019-06-20T02:24:27.979Z,100.00
2019-06-20T02:27:15.610Z,100.00
2019-06-20T02:30:04.307Z,100.00
2019-06-20T02:32:51.658Z,100.00
2019-06-20T02:35:39.947Z,100.00
2019-06-20T02:38:28.282Z,100.00
2019-06-20T02:41:16.337Z,100.00
2019-06-20T02:44:05.023Z,100.00
2019-06-20T02:46:52.636Z,100.00
2019-06-20T02:49:40.355Z,100.00
2019-06-20T02:52:27.951Z,100.00
2019-06-20T02:55:15.959Z,100.00
2019-06-20T02:58:03.492Z,99.66
2019-06-20T03:00:56.917Z,100.00
2019-06-20T03:03:44.801Z,100.00
2019-06-20T03:06:32.509Z,100.00
2019-06-20T03:09:20.218Z,100.00
2019-06-20T03:12:07.763Z,100.00
2019-06-20T03:14:58.747Z,99.82
2019-06-20T03:17:43.925Z,99.84
2019-06-20T03:20:31.603Z,100.00
2019-06-20T03:23:19.201Z,99.08
2019-06-20T03:26:07.398Z,98.78
2019-06-20T03:28:55.543Z,98.09
2019-06-20T03:31:43.094Z,97.19
2019-06-20T03:34:30.792Z,96.33
2019-06-20T03:37:19.045Z,96.24
2019-06-20T03:40:06.995Z,94.92
2019-06-20T03:42:54.471Z,94.42
2019-06-20T03:45:42.689Z,94.34
2019-06-20T03:48:30.931Z,94.29
2019-06-20T03:51:19.410Z,93.22
2019-06-20T03:54:07.685Z,93.27
2019-06-20T03:56:55.953Z,93.04
2019-06-20T03:59:43.661Z,92.79
2019-06-20T04:02:31.326Z,92.24
2019-06-20T04:05:19.268Z,91.90
2019-06-20T04:08:06.942Z,92.04
2019-06-20T04:10:54.463Z,91.87
2019-06-20T04:13:42.693Z,92.09
2019-06-20T04:16:30.276Z,91.77
2019-06-20T04:19:18.567Z,91.85
2019-06-20T04:22:06.784Z,91.22
2019-06-20T04:24:54.802Z,90.42
2019-06-20T04:27:42.573Z,89.92
2019-06-20T04:30:30.528Z,90.28
2019-06-20T04:33:18.491Z,89.76
2019-06-20T04:36:06.697Z,89.48
2019-06-20T04:38:54.612Z,89.51
2019-06-20T04:41:42.475Z,89.58
2019-06-20T04:44:29.853Z,89.59
2019-06-20T04:47:17.685Z,89.28
2019-06-20T04:50:05.432Z,88.41
2019-06-20T04:52:52.908Z,88.35
2019-06-20T04:55:41.318Z,88.35
2019-06-20T04:58:29.937Z,88.28
2019-06-20T05:01:17.802Z,88.11
2019-06-20T05:04:05.347Z,87.83
2019-06-20T05:06:55.456Z,87.04
2019-06-20T05:09:43.136Z,87.24
2019-06-20T05:12:31.509Z,87.43
2019-06-20T05:15:18.952Z,87.11
2019-06-20T05:18:06.830Z,87.49
2019-06-20T05:20:54.502Z,87.52
2019-06-20T05:23:42.100Z,86.94
2019-06-20T05:26:30.391Z,86.77
2019-06-20T05:29:18.185Z,86.51
2019-06-20T05:32:06.390Z,85.44
2019-06-20T05:34:53.796Z,84.31
2019-06-20T05:37:41.984Z,83.54
2019-06-20T05:40:30.211Z,83.18
2019-06-20T05:43:18.192Z,82.05
2019-06-20T05:46:10.795Z,82.15
2019-06-20T05:48:53.798Z,81.82
2019-06-20T05:51:41.797Z,80.55
2019-06-20T05:54:29.387Z,80.14
2019-06-20T05:57:17.242Z,79.98
2019-06-20T06:00:06.006Z,79.96
2019-06-20T06:02:53.628Z,78.51
2019-06-20T06:05:41.706Z,77.06
2019-06-20T06:08:29.757Z,77.09
2019-06-20T06:11:17.969Z,76.63
2019-06-20T06:14:05.462Z,76.78
2019-06-20T06:16:53.198Z,76.06
2019-06-20T06:19:40.712Z,75.54
2019-06-20T06:22:28.937Z,75.79
2019-06-20T06:25:17.050Z,75.13
2019-06-20T06:28:04.996Z,74.99
2019-06-20T06:30:53.097Z,75.86
2019-06-20T06:33:40.720Z,76.08
2019-06-20T06:36:28.545Z,76.01
2019-06-20T06:39:16.330Z,76.04
2019-06-20T06:42:04.453Z,76.33
2019-06-20T06:44:52.564Z,76.27
2019-06-20T06:47:40.166Z,75.67
2019-06-20T06:50:28.306Z,76.34
2019-06-20T06:53:15.810Z,76.25
2019-06-20T06:56:03.299Z,75.86
2019-06-20T06:58:50.805Z,75.74
2019-06-20T07:01:39.342Z,76.42
2019-06-20T07:04:26.794Z,75.96
2019-06-20T07:07:14.559Z,76.35
2019-06-20T07:10:02.260Z,76.17
2019-06-20T07:12:49.995Z,75.73
2019-06-20T07:15:37.720Z,75.56
2019-06-20T07:18:25.469Z,74.40
2019-06-20T07:21:13.230Z,72.31
2019-06-20T07:24:01.059Z,72.25
2019-06-20T07:26:49.029Z,70.92
2019-06-20T07:29:36.995Z,72.42
2019-06-20T07:32:24.749Z,72.08
2019-06-20T07:35:12.405Z,71.83
2019-06-20T07:37:59.912Z,72.56
2019-06-20T07:40:48.214Z,72.79
2019-06-20T07:43:35.993Z,73.98
2019-06-20T07:46:23.859Z,74.09
2019-06-20T07:49:11.964Z,73.88
2019-06-20T07:51:59.476Z,74.36
2019-06-20T07:54:47.303Z,73.92
2019-06-20T07:57:35.085Z,74.38
2019-06-20T08:00:22.697Z,72.65
2019-06-20T08:03:10.573Z,73.05
2019-06-20T08:05:59.041Z,72.28
2019-06-20T08:08:46.726Z,70.73
2019-06-20T08:11:34.337Z,69.98
2019-06-20T08:14:22.704Z,67.44
2019-06-20T08:17:10.771Z,65.72
2019-06-20T08:19:58.329Z,66.00
2019-06-20T08:22:46.217Z,64.30
2019-06-20T08:25:33.845Z,65.13
2019-06-20T08:28:22.295Z,65.40
2019-06-20T08:31:10.508Z,65.43
2019-06-20T08:33:59.233Z,66.11
2019-06-20T08:36:45.566Z,67.66
2019-06-20T08:39:33.639Z,67.64
2019-06-20T08:42:21.543Z,67.75
2019-06-20T08:45:09.245Z,67.38
2019-06-20T08:47:58.274Z,66.74
2019-06-20T08:50:45.263Z,66.62
2019-06-20T08:53:33.250Z,65.28
2019-06-20T08:56:21.143Z,64.22
2019-06-20T08:59:23.482Z,63.88
2019-06-20T09:01:58.741Z,62.59
2019-06-20T09:04:45.008Z,60.21
2019-06-20T09:07:32.990Z,59.60
2019-06-20T09:10:20.970Z,57.85
2019-06-20T09:13:09.199Z,57.46
2019-06-20T09:15:56.971Z,55.92
2019-06-20T09:18:44.895Z,54.47
2019-06-20T09:21:33.011Z,56.21
2019-06-20T09:24:21.464Z,55.46
2019-06-20T09:27:09.530Z,53.37
2019-06-20T09:29:58.531Z,52.92
2019-06-20T09:32:46.079Z,53.89
2019-06-20T09:35:33.933Z,53.22
2019-06-20T09:38:21.947Z,53.13
2019-06-20T09:41:09.647Z,51.85
2019-06-20T09:43:58.558Z,51.15
2019-06-20T09:46:45.891Z,50.90
2019-06-20T09:49:33.390Z,48.90
2019-06-20T09:52:21.613Z,48.93
2019-06-20T09:55:09.183Z,48.96
2019-06-20T09:57:58.190Z,50.76
2019-06-20T10:00:44.663Z,51.82
2019-06-20T10:03:32.336Z,53.54
2019-06-20T10:06:20.048Z,53.10
2019-06-20T10:09:08.553Z,53.03
2019-06-20T10:11:56.511Z,54.18
2019-06-20T10:14:45.471Z,54.25
2019-06-20T10:17:32.051Z,53.50
2019-06-20T10:20:20.423Z,52.62
2019-06-20T10:23:08.277Z,53.16
2019-06-20T10:25:56.008Z,53.46
2019-06-20T10:28:44.616Z,52.19
2019-06-20T10:31:31.764Z,53.70
2019-06-20T10:34:19.282Z,52.70
2019-06-20T10:37:07.266Z,52.25
2019-06-20T10:39:56.777Z,52.64
2019-06-20T10:42:44.441Z,54.35
2019-06-20T10:45:30.149Z,55.49
2019-06-20T10:48:17.715Z,56.79
2019-06-20T10:51:23.599Z,55.13
2019-06-20T10:54:11.839Z,54.87
2019-06-20T10:56:59.392Z,54.21
2019-06-20T10:59:48.440Z,52.43
2019-06-20T11:02:35.160Z,48.60
2019-06-20T11:05:23.001Z,48.23
2019-06-20T11:08:10.676Z,46.53
2019-06-20T11:10:58.284Z,45.59
2019-06-20T11:13:46.537Z,46.71
2019-06-20T11:16:34.270Z,46.68
2019-06-20T11:19:21.954Z,47.05
2019-06-20T11:22:10.416Z,48.02
2019-06-20T11:24:58.237Z,47.21
2019-06-20T11:27:47.337Z,47.30
2019-06-20T11:30:48.097Z,46.08
2019-06-20T11:33:21.760Z,45.21
2019-06-20T11:36:09.198Z,45.08
2019-06-20T11:38:57.050Z,44.00
2019-06-20T11:41:45.270Z,43.87
2019-06-20T11:44:32.841Z,43.59
2019-06-20T11:47:20.703Z,43.64
2019-06-20T11:50:08.244Z,43.37
2019-06-20T11:52:56.035Z,42.12
2019-06-20T11:55:44.022Z,40.95
2019-06-20T11:58:31.883Z,41.08
2019-06-20T12:01:32.304Z,40.46
2019-06-20T12:04:09.411Z,42.77
2019-06-20T12:06:54.853Z,42.70
2019-06-20T12:09:44.196Z,42.22
2019-06-20T12:12:30.436Z,42.70
2019-06-20T12:15:18.188Z,42.77
2019-06-20T12:18:06.342Z,44.17
2019-06-20T12:20:54.232Z,46.22
2019-06-20T12:23:42.523Z,47.86
2019-06-20T12:26:30.316Z,47.39
2019-06-20T12:29:17.883Z,44.67
2019-06-20T12:32:05.534Z,44.64
2019-06-20T12:34:53.037Z,45.19
2019-06-20T12:37:40.665Z,43.18
2019-06-20T12:40:28.572Z,41.92
2019-06-20T12:43:16.122Z,42.12
2019-06-20T12:46:03.738Z,42.67
2019-06-20T12:48:51.486Z,42.21
2019-06-20T12:51:40.479Z,41.91
2019-06-20T12:54:29.964Z,41.98
2019-06-20T12:57:14.360Z,42.38
2019-06-20T13:00:01.904Z,43.41
2019-06-20T13:02:49.901Z,43.60
2019-06-20T13:05:38.467Z,43.71
2019-06-20T13:08:25.507Z,44.82
2019-06-20T13:11:13.543Z,46.17
2019-06-20T13:14:02.223Z,46.19
2019-06-20T13:16:50.265Z,43.09
2019-06-20T13:19:39.132Z,42.14
2019-06-20T13:22:25.908Z,41.83
2019-06-20T13:25:14.015Z,39.18
2019-06-20T13:28:01.850Z,39.61
2019-06-20T13:30:52.077Z,38.94
2019-06-20T13:33:39.628Z,39.65
2019-06-20T13:36:26.739Z,39.73
2019-06-20T13:39:14.310Z,39.80
2019-06-20T13:42:02.593Z,40.43
2019-06-20T13:44:50.732Z,38.80
2019-06-20T13:47:38.850Z,37.87
2019-06-20T13:50:26.256Z,37.95
2019-06-20T13:53:14.347Z,38.23
2019-06-20T13:56:02.379Z,38.64
2019-06-20T13:58:51.259Z,36.22
2019-06-20T14:01:40.208Z,36.04
2019-06-20T14:04:26.144Z,36.45
2019-06-20T14:07:14.642Z,37.54
2019-06-20T14:10:02.720Z,36.76
2019-06-20T14:12:50.195Z,35.79
2019-06-20T14:15:38.077Z,35.46
2019-06-20T14:18:25.942Z,35.35
2019-06-20T14:21:13.847Z,36.34
2019-06-20T14:24:01.371Z,37.78
2019-06-20T14:26:50.690Z,37.71
2019-06-20T14:29:37.985Z,37.45
2019-06-20T14:32:25.740Z,35.85
2019-06-20T14:35:14.279Z,36.58
2019-06-20T14:38:02.778Z,37.29
2019-06-20T14:40:52.417Z,36.34
2019-06-20T14:43:38.799Z,36.38
2019-06-20T14:46:26.459Z,36.69
2019-06-20T14:49:14.541Z,36.78
2019-06-20T14:52:02.308Z,37.67
2019-06-20T14:54:50.041Z,37.96
2019-06-20T14:57:40.736Z,36.46
2019-06-20T15:00:28.862Z,35.84
2019-06-20T15:03:16.390Z,34.96
2019-06-20T15:06:04.494Z,35.36
2019-06-20T15:09:00.242Z,36.43
2019-06-20T15:11:39.756Z,35.67
2019-06-20T15:14:27.324Z,36.01
2019-06-20T15:17:15.213Z,36.93
2019-06-20T15:20:03.117Z,38.00
2019-06-20T15:22:52.555Z,38.69
2019-06-20T15:25:38.890Z,37.80
2019-06-20T15:28:26.361Z,37.05
2019-06-20T15:31:14.048Z,36.69
2019-06-20T15:34:01.675Z,38.17
2019-06-20T15:36:50.276Z,40.43
2019-06-20T15:39:37.450Z,40.63
2019-06-20T15:42:26.130Z,40.91
2019-06-20T15:45:13.706Z,40.90
2019-06-20T15:48:01.453Z,41.24
2019-06-20T15:50:49.897Z,41.58
2019-06-20T15:53:38.175Z,41.40
2019-06-20T15:56:25.415Z,42.38
2019-06-20T15:59:13.391Z,41.72
2019-06-20T16:02:01.206Z,38.43
2019-06-20T16:04:49.611Z,37.59
2019-06-20T16:07:37.447Z,34.49
2019-06-20T16:10:25.779Z,32.89
2019-06-20T16:13:13.532Z,33.74
2019-06-20T16:16:01.267Z,32.21
2019-06-20T16:18:48.680Z,32.58
2019-06-20T16:21:36.432Z,33.52
2019-06-20T16:24:24.460Z,34.11
2019-06-20T16:27:12.279Z,35.08
2019-06-20T16:29:59.843Z,35.75
2019-06-20T16:32:48.175Z,36.20
2019-06-20T16:35:35.885Z,34.33
2019-06-20T16:38:23.452Z,33.42
2019-06-20T16:41:11.001Z,34.78
2019-06-20T16:43:59.335Z,35.40
2019-06-20T16:46:47.512Z,39.28
2019-06-20T16:49:35.081Z,41.79
2019-06-20T16:52:22.651Z,42.42
2019-06-20T16:55:11.263Z,42.49
2019-06-20T16:57:59.297Z,41.99
2019-06-20T17:00:47.316Z,42.16
2019-06-20T17:03:41.737Z,43.16
2019-06-20T17:06:22.472Z,45.11
2019-06-20T17:09:10.732Z,45.54
2019-06-20T17:11:58.679Z,45.71
2019-06-20T17:14:46.135Z,45.90
2019-06-20T17:17:34.390Z,46.70
2019-06-20T17:20:22.932Z,47.70
2019-06-20T17:23:10.857Z,47.94
2019-06-20T17:26:01.443Z,48.20
2019-06-20T17:28:46.741Z,49.00
2019-06-20T17:31:34.596Z,49.22
2019-06-20T17:34:22.578Z,49.94
2019-06-20T17:37:10.529Z,50.55
2019-06-20T17:39:58.233Z,50.84
2019-06-20T17:42:46.020Z,51.27
2019-06-20T17:45:33.625Z,51.80
2019-06-20T17:48:21.481Z,51.90
2019-06-20T17:51:09.194Z,52.40
2019-06-20T17:53:56.963Z,52.81
2019-06-20T17:56:44.600Z,53.01
2019-06-20T17:59:32.583Z,53.04
2019-06-20T18:02:20.885Z,53.26
2019-06-20T18:05:09.144Z,53.55
2019-06-20T18:07:57.330Z,54.11
2019-06-20T18:10:44.922Z,54.18
2019-06-20T18:13:33.206Z,54.69
2019-06-20T18:16:25.305Z,55.34
2019-06-20T18:19:08.780Z,55.89
2019-06-20T18:21:56.451Z,55.91
2019-06-20T18:24:44.236Z,55.76
2019-06-20T18:27:32.586Z,55.83
2019-06-20T18:30:22.352Z,59.18
2019-06-20T18:33:10.302Z,64.27
2019-06-20T18:35:58.168Z,66.87
2019-06-20T18:38:46.023Z,68.88
2019-06-20T18:41:34.234Z,70.41
2019-06-20T18:44:21.879Z,72.48
2019-06-20T18:47:09.882Z,74.57
2019-06-20T18:49:57.683Z,77.25
2019-06-20T18:52:52.168Z,78.78
2019-06-20T18:55:33.413Z,81.02
2019-06-20T18:58:21.107Z,82.44
2019-06-20T19:01:08.785Z,83.46
2019-06-20T19:03:56.704Z,83.87
2019-06-20T19:06:44.372Z,85.09
2019-06-20T19:09:32.779Z,86.07
2019-06-20T19:12:20.772Z,86.68
2019-06-20T19:15:08.549Z,87.35
2019-06-20T19:17:56.296Z,87.99
2019-06-20T19:20:44.105Z,88.49
2019-06-20T19:23:32.666Z,89.16
2019-06-20T19:26:20.332Z,89.59
2019-06-20T19:29:08.593Z,90.48
2019-06-20T19:31:56.165Z,90.85
2019-06-20T19:34:43.874Z,91.16
2019-06-20T19:37:32.183Z,91.11
2019-06-20T19:40:19.768Z,91.49
2019-06-20T19:43:07.335Z,91.81
2019-06-20T19:45:55.029Z,92.14
2019-06-20T19:48:43.129Z,92.21
2019-06-20T19:51:31.008Z,93.30
2019-06-20T19:54:19.002Z,92.61
2019-06-20T19:57:06.465Z,92.88
2019-06-20T19:59:54.157Z,92.66
2019-06-20T20:02:42.098Z,92.97
2019-06-20T20:05:30.508Z,93.09
2019-06-20T20:08:18.477Z,93.32
2019-06-20T20:11:06.115Z,91.83
2019-06-20T20:13:54.097Z,93.63
2019-06-20T20:16:42.354Z,94.06
2019-06-20T20:19:29.858Z,94.48
2019-06-20T20:22:17.544Z,92.68
2019-06-20T20:25:06.348Z,93.78
2019-06-20T20:27:54.096Z,93.53
2019-06-20T20:30:41.973Z,93.35
2019-06-20T20:33:30.204Z,92.47
2019-06-20T20:36:24.887Z,91.36
2019-06-20T20:39:06.753Z,90.91
2019-06-20T20:41:54.355Z,91.00
2019-06-20T20:44:41.976Z,89.78
2019-06-20T20:47:29.757Z,90.43
2019-06-20T20:50:17.438Z,86.70
2019-06-20T20:53:04.980Z,86.12
2019-06-20T20:55:52.789Z,83.68
2019-06-20T20:58:40.589Z,82.96
2019-06-20T21:01:30.217Z,82.23
2019-06-20T21:04:17.773Z,82.00
2019-06-20T21:07:05.662Z,81.48
2019-06-20T21:09:54.072Z,79.68
2019-06-20T21:12:42.470Z,79.42
2019-06-20T21:15:30.319Z,79.54
2019-06-20T21:18:18.591Z,78.58
2019-06-20T21:21:06.866Z,76.30
2019-06-20T21:23:54.733Z,77.05
2019-06-20T21:26:49.589Z,76.82
2019-06-20T21:29:30.130Z,76.87
2019-06-20T21:32:18.036Z,76.52
2019-06-20T21:35:08.827Z,76.91
2019-06-20T21:37:56.761Z,76.75
2019-06-20T21:40:44.434Z,77.57
2019-06-20T21:43:32.361Z,78.14
2019-06-20T21:46:20.828Z,79.01
2019-06-20T21:49:08.763Z,79.67
2019-06-20T21:51:56.606Z,80.53
2019-06-20T21:54:44.540Z,81.46
2019-06-20T21:57:32.846Z,81.47
2019-06-20T22:00:22.668Z,82.53
2019-06-20T22:03:10.219Z,82.38
2019-06-20T22:05:58.394Z,80.59
2019-06-20T22:08:46.389Z,80.71
2019-06-20T22:11:34.786Z,80.38
2019-06-20T22:14:22.928Z,80.21
2019-06-20T22:17:11.337Z,80.56
2019-06-20T22:19:58.934Z,80.12
2019-06-20T22:22:46.982Z,80.88
2019-06-20T22:25:34.781Z,80.93
2019-06-20T22:28:22.275Z,81.25
2019-06-20T22:31:10.238Z,80.91
2019-06-20T22:33:57.750Z,80.92
2019-06-20T22:36:46.208Z,80.69
2019-06-20T22:39:34.397Z,81.19
2019-06-20T22:42:21.910Z,81.22
2019-06-20T22:45:09.638Z,81.22
2019-06-20T22:47:57.678Z,80.70
2019-06-20T22:50:45.413Z,80.87
2019-06-20T22:53:33.034Z,81.17
2019-06-20T22:56:20.845Z,81.18
2019-06-20T22:59:08.948Z,81.27
2019-06-20T23:01:56.387Z,80.27
2019-06-20T23:04:44.690Z,80.76
2019-06-20T23:07:32.550Z,81.08
2019-06-20T23:10:20.131Z,81.65
2019-06-20T23:13:08.208Z,81.86
2019-06-20T23:15:55.833Z,82.80
2019-06-20T23:18:44.106Z,82.21
2019-06-20T23:21:32.049Z,82.07
2019-06-20T23:24:19.562Z,82.09
2019-06-20T23:27:07.856Z,81.83
2019-06-20T23:29:55.806Z,81.95
2019-06-20T23:32:43.840Z,82.01
2019-06-20T23:35:31.327Z,82.12
2019-06-20T23:38:19.436Z,82.38
2019-06-20T23:41:07.310Z,82.24
2019-06-20T23:43:55.289Z,82.31
2019-06-20T23:46:43.105Z,82.40
2019-06-20T23:49:30.760Z,82.63
2019-06-20T23:52:20.151Z,82.91
2019-06-20T23:55:07.892Z,83.02
2019-06-20T23:57:55.510Z,83.14
